This is the latest recevied weather packets stored in our database for station/object TA1FM. If no packets are shown the sender has not sent any weather packets the latest 10 day(s).
| Time | Temp. | Humidity | Pressure | Rain* | Wind** | Luminosity | Snow |
|---|---|---|---|---|---|---|---|
| 1777963651 | 8.89° C | 55% | 911.8 hPa | - | - | - | - |
| 1777962751 | 8.33° C | 55% | 911.8 hPa | - | - | - | - |
| 1777961851 | 8.33° C | 55% | 911.7 hPa | - | - | - | - |
| 1777960951 | 7.78° C | 55% | 911.5 hPa | - | - | - | - |
| 1777960050 | 7.22° C | 55% | 911.5 hPa | - | - | - | - |
| 1777959150 | 6.67° C | 56% | 911.4 hPa | - | - | - | - |
| 1777958250 | 5° C | 56% | 910.5 hPa | - | - | - | - |
| 1777957350 | -6.11° C | 56% | 893.4 hPa | - | - | - | - |
| 1777956450 | 5.56° C | 57% | 911.1 hPa | - | - | - | - |
| 1777954649 | 5° C | 58% | 910.9 hPa | - | - | - | - |
| 1777953749 | 5° C | 59% | 910.9 hPa | - | - | - | - |
| 1777952849 | 5° C | 59% | 910.8 hPa | - | - | - | - |
| 1777951949 | 4.44° C | 59% | 910.7 hPa | - | - | - | - |
| 1777951049 | 4.44° C | 58% | 910.7 hPa | - | - | - | - |
| 1777950149 | 3.89° C | 60% | 910.6 hPa | - | - | - | - |
| 1777813332 | 3.33° C | 100% | 908.4 hPa | - | - | - | - |
| 1777812432 | 3.33° C | 100% | 908.2 hPa | - | - | - | - |
| 1777811532 | 3.33° C | 100% | 908.6 hPa | - | - | - | - |
| 1777810632 | 3.33° C | 100% | 907.9 hPa | - | - | - | - |
| 1777809731 | 3.33° C | 100% | 908 hPa | - | - | - | - |
| 1777808831 | 0° C | 100% | 905.1 hPa | - | - | - | - |
| 1777807931 | 2.78° C | 100% | 908.1 hPa | - | - | - | - |
| 1777807031 | 2.22° C | 100% | 907.9 hPa | - | - | - | - |
| 1777779955 | 0.56° C | 98% | 908.2 hPa | - | - | - | - |
| 1777779055 | 0.56° C | 100% | 908 hPa | - | - | - | - |
* Rain since midnight (hover to see other rain measurements)
** Current wind speed in m/s (hover to see current wind gust speed)